Página principal
METAR-TAF:

METAR-TAF

Aeroportos :

Ottawa, Ontário, Canadá

Aeroporto Internacional Ottawa Macdonald-Cartier

latitude: 45-19N, longitude: 075-40W, altura: 116 m

Observação actual do tempo

O boletim foi feito há 33 minutos, às 13:00 UTC
Vento 7 kt de noroeste
Temperatura 4°C
Humidade 48%
Pressão 1029 hPa
Visibilidade: 24.1 km
Céu limpo

METAR: CYOW 211300Z 31007KT 15SM SKC 04/M06 A3039 RMK SLP297

Hora: 09:33 (13:33 UTC)

Previsão

O boletim foi feito há 1 hora e 55 minutos, às 11:38 UTC
Previsão válida de 21 às 12 UTC a 22 às 12 UTC
Vento 5 kt de oes-noroeste
Visibilidade: 10 km
Céu limpo
Tornando-se
de 21 às 14 UTC a 21 às 16 UTC
Vento 12 kt de noroeste com rajadas de 22 kt
Tornando-se
de 21 às 23 UTC a 22 às 01 UTC
Vento 5 kt de noroeste

TAF: CYOW 211138Z 2112/2212 29005KT P6SM SKC BECMG 2114/2116 32012G22KT BECMG 2123/2201 32005KT RMK NXT FCST BY 211500Z

Observações e previsões do tempo de mais de 4000 aeroportos (mensagens METAR e TAF).

As estações disponíveis são os pontos amarelos e vermelhos sobre o mapa.

Mova o rato sobre o mapa para ver o nome da estação.

Depois clique no ponto para visualizar as observações e previsões meteorológicas.

Para alterar o mapa : clique nos botões verdes com uma cruz preta para aumentar o zoom; no botão verde com uma pitada de zoom; ou nas setas verdes para mapas adjacentes.


METAR-TAF: